ADDS METAR Data INFO
IDs: Format: Raw Decoded Include TAF

Data at: 1942 UTC 18 Feb 2018

K66R 181935Z AUTO 21012KT 10SM SCT026 BKN032 BKN039 25/19 A3005 RMK AO2 T02540186
K66R 181915Z AUTO 21006KT 10SM SCT019 BKN027 BKN034 25/19 A3006 RMK AO2 T02480189
K66R 181855Z AUTO 19009G14KT 10SM SCT017 SCT022 BKN028 24/19 A3008 RMK AO2 T02430186
K66R 181835Z AUTO 21008G14KT 10SM BKN013 BKN022 24/19 A3009 RMK AO2 T02420188
K66R 181815Z AUTO 22008KT 10SM BKN011 OVC038 23/19 A3011 RMK AO2 T02320186
K66R 181755Z AUTO 23005KT 10SM BKN007 BKN036 OVC060 21/18 A3012 RMK AO2 T02090180 10214 20133
K66R 181735Z AUTO 23006KT 7SM OVC005 20/18 A3013 RMK AO2 T02030177
K66R 181715Z AUTO 25004KT 7SM OVC003 19/17 A3014 RMK AO2 T01890171
K66R 181655Z AUTO 24006KT 5SM BR OVC003 18/17 A3015 RMK AO2 T01770167
K66R 181635Z AUTO 24006KT 3SM BR OVC003 17/16 A3015 RMK AO2 T01650156
K66R 181615Z AUTO 25005KT 1/2SM FG OVC003 16/15 A3015 RMK AO2 T01570148
K66R 181555Z AUTO 26003KT 1/4SM FG OVC003 15/15 A3015 RMK AO2 T01540145
K66R 181535Z AUTO 26004KT 1/2SM FG OVC003 15/14 A3015 RMK AO2 T01500140
K66R 181515Z AUTO 26004KT 1/2SM FG OVC003 15/14 A3014 RMK AO2 T01460137
K66R 181455Z AUTO 27003KT 3/4SM BR OVC003 15/14 A3014 RMK AO2 T01450135
K66R 181435Z AUTO 00000KT 3/4SM BR OVC003 14/14 A3014 RMK AO2 T01430135
K66R 181415Z AUTO 29003KT 1/2SM FG OVC003 14/13 A3013 RMK AO2 T01400130
K66R 181355Z AUTO 27003KT 1/2SM FG OVC003 14/13 A3013 RMK AO2 T01360128
K66R 181335Z AUTO 31003KT 3/4SM BR OVC003 14/13 A3013 RMK AO2 T01350126
K66R 181315Z AUTO 00000KT 3/4SM BR OVC003 14/13 A3013 RMK AO2 T01350126
K66R 181255Z AUTO 00000KT 2SM BR OVC003 14/13 A3012 RMK AO2 T01350125
K66R 181235Z AUTO 31003KT 4SM BR OVC003 13/13 A3012 RMK AO2 T01330125
K66R 181215Z AUTO 00000KT 4SM BR OVC005 13/13 A3012 RMK AO2 T01330125
K66R 181155Z AUTO 00000KT 4SM BR OVC005 13/13 A3011 RMK AO2 T01330125 10136 20130
K66R 181130Z AUTO 32003KT 5SM BR OVC005 13/12 A3012 RMK AO2 T01320123
K66R 181115Z AUTO 31004KT 4SM BR OVC005 13/12 A3011 RMK AO2 T01310122
K66R 181050Z AUTO 30004KT 7SM OVC005 13/12 A3011 RMK AO2 T01310122
K66R 181030Z AUTO 32003KT 5SM BR OVC005 13/12 A3012 RMK AO2 T01310122
K66R 181015Z AUTO 00000KT 7SM OVC005 13/12 A3012 RMK AO2 T01300122
K66R 180955Z AUTO 35003KT 5SM BR OVC005 13/12 A3012 RMK AO2 T01300122
K66R 180935Z AUTO 33003KT 7SM BKN005 OVC010 13/12 A3012 RMK AO2 T01300121
K66R 180915Z AUTO 00000KT 4SM BR OVC005 13/12 A3012 RMK AO2 T01300121
K66R 180900Z AUTO 33003KT 4SM -DZ OVC005 13/12 A3012 RMK AO2 T01300122
K66R 180835Z AUTO 32003KT 5SM -RA OVC007 13/12 A3012 RMK AO2 T01320123
K66R 180815Z AUTO 33004KT 7SM SCT007 OVC012 13/12 A3013 RMK AO2 T01330123
K66R 180735Z AUTO 33004KT 7SM SCT007 OVC014 14/12 A3013 RMK AO2 T01350123
K66R 180715Z AUTO 33004KT 10SM SCT007 OVC016 14/12 A3013 RMK AO2 T01350122
K66R 180655Z AUTO 34003KT 10SM BKN016 OVC021 14/12 A3014 RMK AO2 T01360122
K66R 180635Z AUTO 34005KT 10SM SCT007 OVC016 14/12 A3014 RMK AO2 T01360123
K66R 180615Z AUTO 34003KT 10SM SCT007 OVC016 14/13 A3014 RMK AO2 T01360125
K66R 180555Z AUTO 33003KT 10SM OVC016 14/12 A3015 RMK AO2 T01360123 10164 20136 402160131
K66R 180535Z AUTO 34004KT 10SM OVC016 14/12 A3015 RMK AO2 T01400122
K66R 180515Z AUTO 34004KT 10SM OVC018 14/12 A3015 RMK AO2 T01400121
K66R 180455Z AUTO 34003KT 10SM OVC018 14/12 A3016 RMK AO2 T01430122
K66R 180435Z AUTO 32004KT 10SM SCT011 OVC020 15/12 A3015 RMK AO2 T01450121
K66R 180415Z AUTO 32004KT 10SM SCT011 OVC020 15/12 A3015 RMK AO2 T01450116
K66R 180355Z AUTO 33004KT 10SM BKN011 OVC020 15/11 A3016 RMK AO2 T01470112
K66R 180335Z AUTO 33005KT 10SM OVC022 15/11 A3017 RMK AO2 T01480111
K66R 180315Z AUTO 32004KT 10SM BKN022 OVC027 15/11 A3016 RMK AO2 T01500110
K66R 180255Z AUTO 32004KT 10SM OVC022 15/11 A3016 RMK AO2 T01500110
K66R 180235Z AUTO 32003KT 10SM OVC022 15/11 A3016 RMK AO2 T01510111
K66R 180215Z AUTO 32004KT 10SM OVC022 15/11 A3016 RMK AO2 T01500110
K66R 180155Z AUTO 31003KT 10SM OVC022 15/11 A3015 RMK AO2 T01500107
K66R 180055Z AUTO 35008KT 10SM OVC024 15/10 A3014 RMK AO2 T01480100
K66R 180035Z AUTO 35005KT 10SM OVC024 15/10 A3014 RMK AO2 T01520101
K66R 180015Z AUTO 35006KT 10SM OVC024 16/11 A3013 RMK AO2 T01590105
K66R 180000Z AUTO 34006KT 10SM BKN024 OVC050 16/11 A3013 RMK AO2 T01620108
K66R 172330Z AUTO 34006KT 10SM BKN026 OVC050 17/11 A3012 RMK AO2 T01700111
K66R 172315Z AUTO 35008G14KT 10SM OVC026 18/12 A3012 RMK AO2 T01750120
K66R 172255Z AUTO 35007KT 10SM OVC026 18/13 A3011 RMK AO2 T01800125
K66R 172240Z AUTO 35010G16KT 10SM OVC026 18/13 A3010 RMK AO2 T01840128
K66R 172215Z AUTO 35008KT 10SM BKN030 BKN034 OVC095 20/14 A3009 RMK AO2 T02040144
K66R 172155Z AUTO 35005KT 10SM SCT050 OVC095 21/14 A3008 RMK AO2 T02080138
K66R 172135Z AUTO 34003KT 10SM SCT050 OVC095 21/13 A3008 RMK AO2 T02080131
K66R 172115Z AUTO 00000KT 10SM OVC095 20/13 A3007 RMK AO2 T02010128
K66R 172055Z AUTO 00000KT 10SM OVC095 20/12 A3008 RMK AO2 T01950124
K66R 172035Z AUTO 20004KT 10SM SCT095 20/13 A3008 RMK AO2 T02000125
K66R 172015Z AUTO 24003KT 10SM SCT050 SCT095 18/11 A3008 RMK AO2 T01840113
K66R 171955Z AUTO 29003KT 10SM SCT050 18/10 A3009 RMK AO2 T01750104
K66R 171935Z AUTO 27003KT 10SM SCT013 SCT050 16/10 A3010 RMK AO2 T01630098
K66R 171915Z AUTO 33003KT 10SM OVC013 15/09 A3012 RMK AO2 T01450093
K66R 171855Z AUTO 35008KT 10SM OVC013 14/09 A3014 RMK AO2 T01360090
K66R 171815Z AUTO 35010KT 10SM OVC011 15/10 A3015 RMK AO2 T01500103
K66R 171755Z AUTO 35006KT 10SM OVC011 15/10 A3015 RMK AO2 T01470103 10152 20131
K66R 171735Z AUTO 34005KT 10SM OVC011 15/11 A3016 RMK AO2 T01450109
K66R 171715Z AUTO 35005KT 10SM OVC011 15/11 A3016 RMK AO2 T01460110
K66R 171655Z AUTO 35005KT 10SM OVC011 14/11 A3016 RMK AO2 T01390109
K66R 171635Z AUTO 35006KT 10SM -RA OVC009 14/11 A3016 RMK AO2 T01360110
K66R 171610Z AUTO 35007KT 10SM OVC007 14/12 A3015 RMK AO2 T01350115
K66R 171555Z AUTO 34006KT 10SM OVC007 13/12 A3015 RMK AO2 T01320115
K66R 171535Z AUTO 34009KT 10SM OVC007 13/12 A3014 RMK AO2 T01310115
K66R 171515Z AUTO 34004KT 10SM OVC007 14/13 A3013 RMK AO2 T01350125
K66R 171455Z AUTO 33006KT 10SM OVC007 13/12 A3012 RMK AO2 T01330123
K66R 171435Z AUTO 33005KT 10SM OVC007 14/13 A3012 RMK AO2 T01350125
K66R 171415Z AUTO 33005KT 10SM OVC007 14/13 A3011 RMK AO2 T01360126
K66R 171400Z AUTO 34004KT 10SM OVC007 14/13 A3011 RMK AO2 T01350125
K66R 171335Z AUTO 35005KT 7SM DZ OVC007 14/13 A3010 RMK AO2 T01400130
K66R 171315Z AUTO 34009KT 7SM -DZ OVC007 14/13 A3009 RMK AO2 T01430132
K66R 171255Z AUTO 35004KT 7SM RA BKN007 OVC019 15/13 A3007 RMK AO2 T01450130
K66R 171235Z AUTO 35004KT 10SM -RA OVC007 15/13 A3007 RMK AO2 T01460129
K66R 171215Z AUTO 00000KT 10SM OVC007 15/12 A3005 RMK AO2 T01480124
K66R 171155Z AUTO 35004KT 10SM OVC007 15/12 A3005 RMK AO2 T01530122 10165 20152
K66R 171135Z AUTO 00000KT 10SM OVC007 16/12 A3004 RMK AO2 LTG DSNT E T01550120
K66R 171115Z AUTO 00000KT 10SM BKN007 OVC026 16/12 A3003 RMK AO2 T01550119
K66R 171055Z AUTO 00000KT 10SM OVC009 16/12 A3003 RMK AO2 T01550117
K66R 171035Z AUTO 00000KT 10SM OVC007 16/11 A3003 RMK AO2 T01550113
K66R 171015Z AUTO 27003KT 10SM OVC009 16/11 A3002 RMK AO2 T01550110
K66R 170955Z AUTO 00000KT 10SM OVC009 15/12 A3002 RMK AO2 T01530115
K66R 170935Z AUTO 00000KT 10SM OVC009 15/11 A3004 RMK AO2 T01530110
K66R 170915Z AUTO 00000KT 7SM RA OVC011 16/10 A3005 RMK AO2 T01590102
K66R 170855Z AUTO 00000KT 10SM OVC011 16/10 A3005 RMK AO2 T01600103
K66R 170835Z AUTO 00000KT 10SM OVC013 16/10 A3007 RMK AO2 T01600101
K66R 170815Z AUTO 00000KT 10SM OVC013 16/10 A3007 RMK AO2 T01600099
K66R 170755Z AUTO 00000KT 10SM OVC015 16/10 A3008 RMK AO2 T01580100